Arbor, Missouri
Current Conditions -  °F | °C
As of 10:31 AM on Sunday 23 Nov 2014 (Local Time) from KCGI Reporting Station
Light Rain Light Rain  
Wind Chill: 55°   Ceiling: 900
Heat Index: 55°   Visibility: 1.2mi
Dew Point: 54°   Wind: 12mph
Humidity: 96%   Direction: 130°SE
Pressure: 29.65"   Gusts: NA
Location:  37.1651°N, 89.623°W
Report Text: KCGI 231631Z 13010KT 1 1/4SM -RA BR OVC009 13/12 A2965 RMK AO2 RAB31 CIG 006V010 PRESFR P0001 T01280122
Loading
Personal Weather Stations






























Interactive Weather Map New forecast layout! Learn more

10-Day Weather Forecast

Advertisements
Track Severe Weather on mobile